sensor_id;sensor_type;location;lat;lon;timestamp;P1;durP1;ratioP1;P2;durP2;ratioP2
11191;SDS011;5652;48.406;10.820;2023-02-28T00:00:08;4.70;;;3.20;;
11191;SDS011;5652;48.406;10.820;2023-02-28T00:02:36;4.28;;;3.20;;
11191;SDS011;5652;48.406;10.820;2023-02-28T00:05:04;4.13;;;3.30;;
11191;SDS011;5652;48.406;10.820;2023-02-28T00:07:32;5.68;;;3.80;;
11191;SDS011;5652;48.406;10.820;2023-02-28T00:09:59;5.57;;;3.53;;
11191;SDS011;5652;48.406;10.820;2023-02-28T00:12:27;5.22;;;3.60;;
11191;SDS011;5652;48.406;10.820;2023-02-28T00:14:54;5.28;;;3.65;;
11191;SDS011;5652;48.406;10.820;2023-02-28T00:17:21;4.27;;;3.47;;
11191;SDS011;5652;48.406;10.820;2023-02-28T00:19:48;5.43;;;3.50;;
11191;SDS011;5652;48.406;10.820;2023-02-28T00:22:16;4.32;;;3.20;;
11191;SDS011;5652;48.406;10.820;2023-02-28T00:24:44;4.95;;;3.50;;
11191;SDS011;5652;48.406;10.820;2023-02-28T00:27:12;7.97;;;5.55;;
11191;SDS011;5652;48.406;10.820;2023-02-28T00:29:39;5.85;;;3.95;;
11191;SDS011;5652;48.406;10.820;2023-02-28T00:32:06;6.78;;;5.50;;
11191;SDS011;5652;48.406;10.820;2023-02-28T00:34:33;5.55;;;4.05;;
11191;SDS011;5652;48.406;10.820;2023-02-28T00:37:03;5.50;;;4.07;;
11191;SDS011;5652;48.406;10.820;2023-02-28T00:39:30;5.28;;;3.83;;
11191;SDS011;5652;48.406;10.820;2023-02-28T00:41:59;6.75;;;3.90;;
11191;SDS011;5652;48.406;10.820;2023-02-28T00:44:26;6.03;;;4.25;;
11191;SDS011;5652;48.406;10.820;2023-02-28T00:46:53;4.88;;;3.67;;
11191;SDS011;5652;48.406;10.820;2023-02-28T00:49:21;5.90;;;4.45;;
11191;SDS011;5652;48.406;10.820;2023-02-28T00:51:48;7.03;;;4.00;;
11191;SDS011;5652;48.406;10.820;2023-02-28T00:54:15;5.57;;;4.10;;
11191;SDS011;5652;48.406;10.820;2023-02-28T00:56:43;5.30;;;3.90;;
11191;SDS011;5652;48.406;10.820;2023-02-28T00:59:12;5.35;;;3.70;;
11191;SDS011;5652;48.406;10.820;2023-02-28T01:01:40;4.97;;;3.58;;
11191;SDS011;5652;48.406;10.820;2023-02-28T01:04:08;5.35;;;3.75;;
11191;SDS011;5652;48.406;10.820;2023-02-28T01:06:35;3.80;;;3.30;;
11191;SDS011;5652;48.406;10.820;2023-02-28T01:09:02;4.40;;;3.35;;
11191;SDS011;5652;48.406;10.820;2023-02-28T01:11:30;5.32;;;3.60;;
11191;SDS011;5652;48.406;10.820;2023-02-28T01:13:57;5.43;;;3.60;;
11191;SDS011;5652;48.406;10.820;2023-02-28T01:16:26;5.70;;;3.90;;
11191;SDS011;5652;48.406;10.820;2023-02-28T01:18:53;4.45;;;3.42;;
11191;SDS011;5652;48.406;10.820;2023-02-28T01:21:20;4.53;;;3.90;;
11191;SDS011;5652;48.406;10.820;2023-02-28T01:23:48;5.00;;;3.45;;
11191;SDS011;5652;48.406;10.820;2023-02-28T01:26:16;5.95;;;3.67;;
11191;SDS011;5652;48.406;10.820;2023-02-28T01:28:43;4.57;;;3.70;;
11191;SDS011;5652;48.406;10.820;2023-02-28T01:31:11;4.90;;;3.67;;
11191;SDS011;5652;48.406;10.820;2023-02-28T01:33:39;5.65;;;3.50;;
11191;SDS011;5652;48.406;10.820;2023-02-28T01:36:08;5.85;;;3.63;;
11191;SDS011;5652;48.406;10.820;2023-02-28T01:38:36;5.60;;;3.70;;
11191;SDS011;5652;48.406;10.820;2023-02-28T01:41:03;6.28;;;3.58;;
11191;SDS011;5652;48.406;10.820;2023-02-28T01:43:31;4.90;;;3.60;;
11191;SDS011;5652;48.406;10.820;2023-02-28T01:45:59;4.65;;;3.65;;
11191;SDS011;5652;48.406;10.820;2023-02-28T01:48:28;4.90;;;3.72;;
11191;SDS011;5652;48.406;10.820;2023-02-28T01:50:58;5.22;;;3.80;;
11191;SDS011;5652;48.406;10.820;2023-02-28T01:53:29;5.13;;;3.75;;
11191;SDS011;5652;48.406;10.820;2023-02-28T01:55:56;5.63;;;4.10;;
11191;SDS011;5652;48.406;10.820;2023-02-28T01:58:23;5.53;;;3.90;;
11191;SDS011;5652;48.406;10.820;2023-02-28T02:00:51;6.03;;;3.78;;
11191;SDS011;5652;48.406;10.820;2023-02-28T02:03:18;4.73;;;3.50;;
11191;SDS011;5652;48.406;10.820;2023-02-28T02:05:46;5.03;;;3.97;;
11191;SDS011;5652;48.406;10.820;2023-02-28T02:08:16;4.70;;;3.80;;
11191;SDS011;5652;48.406;10.820;2023-02-28T02:10:44;5.40;;;3.90;;
11191;SDS011;5652;48.406;10.820;2023-02-28T02:13:19;5.18;;;4.07;;
11191;SDS011;5652;48.406;10.820;2023-02-28T02:15:49;5.53;;;4.32;;
11191;SDS011;5652;48.406;10.820;2023-02-28T02:18:22;5.65;;;4.40;;
11191;SDS011;5652;48.406;10.820;2023-02-28T02:21:04;5.65;;;4.40;;
11191;SDS011;5652;48.406;10.820;2023-02-28T02:26:44;5.40;;;4.20;;
11191;SDS011;5652;48.406;10.820;2023-02-28T02:29:23;5.40;;;4.40;;
11191;SDS011;5652;48.406;10.820;2023-02-28T02:32:03;5.57;;;4.30;;
11191;SDS011;5652;48.406;10.820;2023-02-28T02:34:42;5.23;;;4.27;;
11191;SDS011;5652;48.406;10.820;2023-02-28T02:37:15;5.65;;;4.68;;
11191;SDS011;5652;48.406;10.820;2023-02-28T02:39:47;5.57;;;4.18;;
11191;SDS011;5652;48.406;10.820;2023-02-28T02:42:16;5.53;;;4.50;;
11191;SDS011;5652;48.406;10.820;2023-02-28T02:44:46;5.40;;;4.40;;
11191;SDS011;5652;48.406;10.820;2023-02-28T02:47:15;5.88;;;4.38;;
11191;SDS011;5652;48.406;10.820;2023-02-28T02:49:45;6.05;;;4.60;;
11191;SDS011;5652;48.406;10.820;2023-02-28T02:52:14;5.57;;;4.30;;
11191;SDS011;5652;48.406;10.820;2023-02-28T02:54:44;5.82;;;4.38;;
11191;SDS011;5652;48.406;10.820;2023-02-28T02:57:13;6.05;;;4.45;;
11191;SDS011;5652;48.406;10.820;2023-02-28T02:59:41;6.50;;;4.60;;
11191;SDS011;5652;48.406;10.820;2023-02-28T03:02:10;6.20;;;4.70;;
11191;SDS011;5652;48.406;10.820;2023-02-28T03:04:40;6.22;;;4.75;;
11191;SDS011;5652;48.406;10.820;2023-02-28T03:07:10;5.75;;;4.80;;
11191;SDS011;5652;48.406;10.820;2023-02-28T03:09:37;5.47;;;4.57;;
11191;SDS011;5652;48.406;10.820;2023-02-28T03:12:04;5.53;;;4.72;;
11191;SDS011;5652;48.406;10.820;2023-02-28T03:14:36;5.35;;;4.60;;
11191;SDS011;5652;48.406;10.820;2023-02-28T03:19:55;5.78;;;4.80;;
11191;SDS011;5652;48.406;10.820;2023-02-28T03:25:20;6.07;;;4.97;;
11191;SDS011;5652;48.406;10.820;2023-02-28T03:27:49;7.93;;;5.20;;
11191;SDS011;5652;48.406;10.820;2023-02-28T03:30:22;6.60;;;4.90;;
11191;SDS011;5652;48.406;10.820;2023-02-28T03:32:52;6.90;;;5.10;;
11191;SDS011;5652;48.406;10.820;2023-02-28T03:35:22;6.22;;;4.90;;
11191;SDS011;5652;48.406;10.820;2023-02-28T03:37:52;6.10;;;4.97;;
11191;SDS011;5652;48.406;10.820;2023-02-28T03:40:21;7.75;;;5.20;;
11191;SDS011;5652;48.406;10.820;2023-02-28T03:42:50;7.30;;;5.65;;
11191;SDS011;5652;48.406;10.820;2023-02-28T03:45:19;8.23;;;5.65;;
11191;SDS011;5652;48.406;10.820;2023-02-28T03:47:54;6.88;;;5.45;;
11191;SDS011;5652;48.406;10.820;2023-02-28T03:50:22;6.90;;;5.50;;
11191;SDS011;5652;48.406;10.820;2023-02-28T03:52:51;7.05;;;5.22;;
11191;SDS011;5652;48.406;10.820;2023-02-28T03:55:21;6.85;;;5.22;;
11191;SDS011;5652;48.406;10.820;2023-02-28T03:57:51;6.45;;;5.18;;
11191;SDS011;5652;48.406;10.820;2023-02-28T04:00:28;7.43;;;5.28;;
11191;SDS011;5652;48.406;10.820;2023-02-28T04:02:56;6.75;;;5.30;;
11191;SDS011;5652;48.406;10.820;2023-02-28T04:05:23;7.30;;;5.40;;
11191;SDS011;5652;48.406;10.820;2023-02-28T04:07:51;7.10;;;5.40;;
11191;SDS011;5652;48.406;10.820;2023-02-28T04:10:19;8.93;;;5.50;;
11191;SDS011;5652;48.406;10.820;2023-02-28T04:12:47;6.15;;;5.10;;
11191;SDS011;5652;48.406;10.820;2023-02-28T04:15:14;5.93;;;5.30;;
11191;SDS011;5652;48.406;10.820;2023-02-28T04:17:41;7.78;;;5.38;;
11191;SDS011;5652;48.406;10.820;2023-02-28T04:20:09;5.78;;;5.18;;
11191;SDS011;5652;48.406;10.820;2023-02-28T04:22:36;7.43;;;5.32;;
11191;SDS011;5652;48.406;10.820;2023-02-28T04:25:04;7.03;;;5.85;;
11191;SDS011;5652;48.406;10.820;2023-02-28T04:27:31;6.63;;;5.45;;
11191;SDS011;5652;48.406;10.820;2023-02-28T04:30:00;8.18;;;5.93;;
11191;SDS011;5652;48.406;10.820;2023-02-28T04:32:27;8.50;;;6.65;;
11191;SDS011;5652;48.406;10.820;2023-02-28T04:34:54;18.48;;;12.00;;
11191;SDS011;5652;48.406;10.820;2023-02-28T04:37:21;37.58;;;23.77;;
11191;SDS011;5652;48.406;10.820;2023-02-28T04:39:52;10.35;;;8.35;;
11191;SDS011;5652;48.406;10.820;2023-02-28T04:42:20;7.47;;;5.93;;
11191;SDS011;5652;48.406;10.820;2023-02-28T04:44:47;9.68;;;6.45;;
11191;SDS011;5652;48.406;10.820;2023-02-28T04:47:15;8.43;;;6.22;;
11191;SDS011;5652;48.406;10.820;2023-02-28T04:49:42;8.55;;;6.18;;
11191;SDS011;5652;48.406;10.820;2023-02-28T04:52:10;9.05;;;7.18;;
11191;SDS011;5652;48.406;10.820;2023-02-28T04:54:38;7.90;;;6.70;;
11191;SDS011;5652;48.406;10.820;2023-02-28T04:57:05;7.93;;;6.50;;
11191;SDS011;5652;48.406;10.820;2023-02-28T04:59:32;8.63;;;6.53;;
11191;SDS011;5652;48.406;10.820;2023-02-28T05:01:59;9.45;;;6.47;;
11191;SDS011;5652;48.406;10.820;2023-02-28T05:04:33;7.47;;;6.28;;
11191;SDS011;5652;48.406;10.820;2023-02-28T05:07:00;7.63;;;6.30;;
11191;SDS011;5652;48.406;10.820;2023-02-28T05:09:28;9.30;;;6.70;;
11191;SDS011;5652;48.406;10.820;2023-02-28T05:11:55;7.30;;;6.25;;
11191;SDS011;5652;48.406;10.820;2023-02-28T05:14:23;7.60;;;6.65;;
11191;SDS011;5652;48.406;10.820;2023-02-28T05:16:50;8.38;;;6.78;;
11191;SDS011;5652;48.406;10.820;2023-02-28T05:19:17;7.93;;;6.40;;
11191;SDS011;5652;48.406;10.820;2023-02-28T05:21:51;8.75;;;6.97;;
11191;SDS011;5652;48.406;10.820;2023-02-28T05:24:19;7.88;;;6.40;;
11191;SDS011;5652;48.406;10.820;2023-02-28T05:26:48;9.93;;;6.32;;
11191;SDS011;5652;48.406;10.820;2023-02-28T05:29:15;7.90;;;6.70;;
11191;SDS011;5652;48.406;10.820;2023-02-28T05:31:43;8.03;;;6.47;;
11191;SDS011;5652;48.406;10.820;2023-02-28T05:34:10;9.10;;;6.57;;
11191;SDS011;5652;48.406;10.820;2023-02-28T05:36:37;7.50;;;6.32;;
11191;SDS011;5652;48.406;10.820;2023-02-28T05:39:06;8.02;;;6.72;;
11191;SDS011;5652;48.406;10.820;2023-02-28T05:41:37;8.63;;;6.57;;
11191;SDS011;5652;48.406;10.820;2023-02-28T05:44:04;8.60;;;6.70;;
11191;SDS011;5652;48.406;10.820;2023-02-28T05:46:31;9.02;;;6.93;;
11191;SDS011;5652;48.406;10.820;2023-02-28T05:48:58;7.90;;;6.45;;
11191;SDS011;5652;48.406;10.820;2023-02-28T05:51:25;9.32;;;7.32;;
11191;SDS011;5652;48.406;10.820;2023-02-28T05:53:53;8.23;;;7.05;;
11191;SDS011;5652;48.406;10.820;2023-02-28T05:56:21;9.15;;;7.32;;
11191;SDS011;5652;48.406;10.820;2023-02-28T05:58:48;10.07;;;7.63;;
11191;SDS011;5652;48.406;10.820;2023-02-28T06:01:20;9.38;;;7.53;;
11191;SDS011;5652;48.406;10.820;2023-02-28T06:03:47;10.20;;;7.85;;
11191;SDS011;5652;48.406;10.820;2023-02-28T06:06:15;9.38;;;7.72;;
11191;SDS011;5652;48.406;10.820;2023-02-28T06:08:42;9.38;;;7.65;;
11191;SDS011;5652;48.406;10.820;2023-02-28T06:11:09;9.65;;;7.38;;
11191;SDS011;5652;48.406;10.820;2023-02-28T06:13:38;9.13;;;7.53;;
11191;SDS011;5652;48.406;10.820;2023-02-28T06:16:06;8.45;;;7.10;;
11191;SDS011;5652;48.406;10.820;2023-02-28T06:18:33;10.77;;;7.53;;
11191;SDS011;5652;48.406;10.820;2023-02-28T06:21:00;9.30;;;7.63;;
11191;SDS011;5652;48.406;10.820;2023-02-28T06:23:27;9.00;;;7.30;;
11191;SDS011;5652;48.406;10.820;2023-02-28T06:25:54;9.35;;;7.60;;
11191;SDS011;5652;48.406;10.820;2023-02-28T06:28:23;9.35;;;7.55;;
11191;SDS011;5652;48.406;10.820;2023-02-28T06:30:51;9.00;;;7.53;;
11191;SDS011;5652;48.406;10.820;2023-02-28T06:33:18;10.57;;;7.10;;
11191;SDS011;5652;48.406;10.820;2023-02-28T06:35:46;8.73;;;7.20;;
11191;SDS011;5652;48.406;10.820;2023-02-28T06:38:13;8.95;;;7.38;;
11191;SDS011;5652;48.406;10.820;2023-02-28T06:40:40;9.00;;;7.27;;
11191;SDS011;5652;48.406;10.820;2023-02-28T06:43:08;10.18;;;7.70;;
11191;SDS011;5652;48.406;10.820;2023-02-28T06:45:40;9.52;;;7.40;;
11191;SDS011;5652;48.406;10.820;2023-02-28T06:48:09;9.15;;;7.60;;
11191;SDS011;5652;48.406;10.820;2023-02-28T06:50:36;8.47;;;7.23;;
11191;SDS011;5652;48.406;10.820;2023-02-28T06:53:03;10.73;;;7.75;;
11191;SDS011;5652;48.406;10.820;2023-02-28T06:55:31;10.20;;;7.20;;
11191;SDS011;5652;48.406;10.820;2023-02-28T06:57:58;9.50;;;7.28;;
11191;SDS011;5652;48.406;10.820;2023-02-28T07:00:25;8.40;;;7.50;;
11191;SDS011;5652;48.406;10.820;2023-02-28T07:02:52;9.32;;;6.75;;
11191;SDS011;5652;48.406;10.820;2023-02-28T07:05:21;8.82;;;7.40;;
11191;SDS011;5652;48.406;10.820;2023-02-28T07:07:49;8.88;;;7.38;;
11191;SDS011;5652;48.406;10.820;2023-02-28T07:10:17;9.07;;;7.40;;
11191;SDS011;5652;48.406;10.820;2023-02-28T07:12:44;9.27;;;7.70;;
11191;SDS011;5652;48.406;10.820;2023-02-28T07:15:22;11.85;;;7.95;;
11191;SDS011;5652;48.406;10.820;2023-02-28T07:17:49;10.38;;;8.25;;
11191;SDS011;5652;48.406;10.820;2023-02-28T07:20:16;10.27;;;7.95;;
11191;SDS011;5652;48.406;10.820;2023-02-28T07:22:45;9.70;;;7.85;;
11191;SDS011;5652;48.406;10.820;2023-02-28T07:25:20;9.00;;;7.20;;
11191;SDS011;5652;48.406;10.820;2023-02-28T07:27:47;9.82;;;7.60;;
11191;SDS011;5652;48.406;10.820;2023-02-28T07:30:14;9.27;;;7.38;;
11191;SDS011;5652;48.406;10.820;2023-02-28T07:32:41;9.07;;;7.43;;
11191;SDS011;5652;48.406;10.820;2023-02-28T07:35:08;9.63;;;7.50;;
11191;SDS011;5652;48.406;10.820;2023-02-28T07:37:35;9.40;;;7.50;;
11191;SDS011;5652;48.406;10.820;2023-02-28T07:40:04;10.65;;;8.05;;
11191;SDS011;5652;48.406;10.820;2023-02-28T07:42:33;9.35;;;7.32;;
11191;SDS011;5652;48.406;10.820;2023-02-28T07:45:01;10.63;;;7.73;;
11191;SDS011;5652;48.406;10.820;2023-02-28T07:47:28;10.75;;;7.85;;
11191;SDS011;5652;48.406;10.820;2023-02-28T07:49:55;8.73;;;7.00;;
11191;SDS011;5652;48.406;10.820;2023-02-28T07:52:23;8.98;;;7.30;;
11191;SDS011;5652;48.406;10.820;2023-02-28T07:54:50;9.43;;;7.25;;
11191;SDS011;5652;48.406;10.820;2023-02-28T07:57:18;9.52;;;7.30;;
11191;SDS011;5652;48.406;10.820;2023-02-28T07:59:45;9.85;;;7.43;;
11191;SDS011;5652;48.406;10.820;2023-02-28T08:02:13;10.30;;;7.77;;
11191;SDS011;5652;48.406;10.820;2023-02-28T08:04:40;10.95;;;7.93;;
11191;SDS011;5652;48.406;10.820;2023-02-28T08:07:07;10.52;;;7.03;;
11191;SDS011;5652;48.406;10.820;2023-02-28T08:09:34;9.13;;;7.72;;
11191;SDS011;5652;48.406;10.820;2023-02-28T08:12:02;9.13;;;7.32;;
11191;SDS011;5652;48.406;10.820;2023-02-28T08:14:36;9.55;;;7.40;;
11191;SDS011;5652;48.406;10.820;2023-02-28T08:17:04;9.40;;;7.28;;
11191;SDS011;5652;48.406;10.820;2023-02-28T08:19:31;8.07;;;6.90;;
11191;SDS011;5652;48.406;10.820;2023-02-28T08:21:59;10.27;;;7.77;;
11191;SDS011;5652;48.406;10.820;2023-02-28T08:24:26;10.15;;;7.82;;
11191;SDS011;5652;48.406;10.820;2023-02-28T08:26:54;12.27;;;7.93;;
11191;SDS011;5652;48.406;10.820;2023-02-28T08:29:21;10.15;;;7.70;;
11191;SDS011;5652;48.406;10.820;2023-02-28T08:31:50;9.95;;;7.70;;
11191;SDS011;5652;48.406;10.820;2023-02-28T08:34:17;10.30;;;7.88;;
11191;SDS011;5652;48.406;10.820;2023-02-28T08:36:44;8.68;;;7.07;;
11191;SDS011;5652;48.406;10.820;2023-02-28T08:39:11;9.45;;;7.60;;
11191;SDS011;5652;48.406;10.820;2023-02-28T08:41:39;9.27;;;7.65;;
11191;SDS011;5652;48.406;10.820;2023-02-28T08:44:06;10.57;;;8.30;;
11191;SDS011;5652;48.406;10.820;2023-02-28T08:46:33;10.40;;;7.88;;
11191;SDS011;5652;48.406;10.820;2023-02-28T08:49:01;10.73;;;8.25;;
11191;SDS011;5652;48.406;10.820;2023-02-28T08:51:29;12.30;;;7.95;;
11191;SDS011;5652;48.406;10.820;2023-02-28T08:53:57;11.35;;;8.48;;
11191;SDS011;5652;48.406;10.820;2023-02-28T08:56:25;10.15;;;8.20;;
11191;SDS011;5652;48.406;10.820;2023-02-28T08:58:54;12.02;;;7.88;;
11191;SDS011;5652;48.406;10.820;2023-02-28T09:01:23;9.10;;;7.57;;
11191;SDS011;5652;48.406;10.820;2023-02-28T09:03:52;9.85;;;8.10;;
11191;SDS011;5652;48.406;10.820;2023-02-28T09:06:22;10.50;;;7.77;;
11191;SDS011;5652;48.406;10.820;2023-02-28T09:08:49;11.40;;;7.55;;
11191;SDS011;5652;48.406;10.820;2023-02-28T09:11:17;10.27;;;7.83;;
11191;SDS011;5652;48.406;10.820;2023-02-28T09:13:45;9.73;;;7.60;;
11191;SDS011;5652;48.406;10.820;2023-02-28T09:16:13;10.63;;;8.10;;
11191;SDS011;5652;48.406;10.820;2023-02-28T09:18:41;9.02;;;7.53;;
11191;SDS011;5652;48.406;10.820;2023-02-28T09:21:09;10.10;;;7.68;;
11191;SDS011;5652;48.406;10.820;2023-02-28T09:23:40;11.05;;;8.02;;
11191;SDS011;5652;48.406;10.820;2023-02-28T09:26:07;9.57;;;7.47;;
11191;SDS011;5652;48.406;10.820;2023-02-28T09:28:34;8.75;;;6.93;;
11191;SDS011;5652;48.406;10.820;2023-02-28T09:31:01;10.85;;;7.78;;
11191;SDS011;5652;48.406;10.820;2023-02-28T09:33:29;10.10;;;6.75;;
11191;SDS011;5652;48.406;10.820;2023-02-28T09:35:57;9.15;;;6.68;;
11191;SDS011;5652;48.406;10.820;2023-02-28T09:38:25;10.02;;;6.55;;
11191;SDS011;5652;48.406;10.820;2023-02-28T09:40:55;10.05;;;6.80;;
11191;SDS011;5652;48.406;10.820;2023-02-28T09:43:23;9.35;;;6.57;;
11191;SDS011;5652;48.406;10.820;2023-02-28T09:45:52;10.65;;;7.05;;
11191;SDS011;5652;48.406;10.820;2023-02-28T09:48:24;8.25;;;6.55;;
11191;SDS011;5652;48.406;10.820;2023-02-28T09:50:55;8.80;;;6.80;;
11191;SDS011;5652;48.406;10.820;2023-02-28T09:53:26;9.05;;;6.50;;
11191;SDS011;5652;48.406;10.820;2023-02-28T09:56:01;8.38;;;6.50;;
11191;SDS011;5652;48.406;10.820;2023-02-28T09:58:31;9.25;;;6.68;;
11191;SDS011;5652;48.406;10.820;2023-02-28T10:01:02;9.57;;;6.45;;
11191;SDS011;5652;48.406;10.820;2023-02-28T10:03:32;9.55;;;6.15;;
11191;SDS011;5652;48.406;10.820;2023-02-28T10:06:02;8.50;;;6.40;;
11191;SDS011;5652;48.406;10.820;2023-02-28T10:08:35;8.80;;;6.03;;
11191;SDS011;5652;48.406;10.820;2023-02-28T10:11:09;8.60;;;5.88;;
11191;SDS011;5652;48.406;10.820;2023-02-28T10:13:39;7.27;;;5.57;;
11191;SDS011;5652;48.406;10.820;2023-02-28T10:16:10;10.02;;;6.07;;
11191;SDS011;5652;48.406;10.820;2023-02-28T10:18:41;9.90;;;6.80;;
11191;SDS011;5652;48.406;10.820;2023-02-28T10:21:13;9.80;;;6.97;;
11191;SDS011;5652;48.406;10.820;2023-02-28T10:23:43;8.98;;;6.70;;
11191;SDS011;5652;48.406;10.820;2023-02-28T10:26:14;10.18;;;6.40;;
11191;SDS011;5652;48.406;10.820;2023-02-28T10:28:42;8.60;;;5.88;;
11191;SDS011;5652;48.406;10.820;2023-02-28T10:31:10;7.93;;;6.00;;
11191;SDS011;5652;48.406;10.820;2023-02-28T10:33:38;8.90;;;6.07;;
11191;SDS011;5652;48.406;10.820;2023-02-28T10:36:05;7.53;;;5.82;;
11191;SDS011;5652;48.406;10.820;2023-02-28T10:38:33;9.45;;;5.85;;
11191;SDS011;5652;48.406;10.820;2023-02-28T10:41:05;9.70;;;6.50;;
11191;SDS011;5652;48.406;10.820;2023-02-28T10:43:33;9.98;;;6.63;;
11191;SDS011;5652;48.406;10.820;2023-02-28T10:46:02;10.93;;;6.20;;
11191;SDS011;5652;48.406;10.820;2023-02-28T10:48:31;7.85;;;5.80;;
11191;SDS011;5652;48.406;10.820;2023-02-28T10:50:58;8.27;;;6.30;;
11191;SDS011;5652;48.406;10.820;2023-02-28T10:53:33;7.82;;;5.97;;
11191;SDS011;5652;48.406;10.820;2023-02-28T10:56:02;7.80;;;6.10;;
11191;SDS011;5652;48.406;10.820;2023-02-28T10:58:30;8.80;;;6.20;;
11191;SDS011;5652;48.406;10.820;2023-02-28T11:00:59;9.80;;;6.43;;
11191;SDS011;5652;48.406;10.820;2023-02-28T11:03:31;8.45;;;6.20;;
11191;SDS011;5652;48.406;10.820;2023-02-28T11:06:03;7.60;;;5.85;;
11191;SDS011;5652;48.406;10.820;2023-02-28T11:08:31;8.55;;;6.28;;
11191;SDS011;5652;48.406;10.820;2023-02-28T11:10:58;8.43;;;6.30;;
11191;SDS011;5652;48.406;10.820;2023-02-28T11:13:29;8.82;;;6.40;;
11191;SDS011;5652;48.406;10.820;2023-02-28T11:16:00;9.45;;;6.68;;
11191;SDS011;5652;48.406;10.820;2023-02-28T11:18:28;7.53;;;5.70;;
11191;SDS011;5652;48.406;10.820;2023-02-28T11:20:57;7.78;;;5.93;;
11191;SDS011;5652;48.406;10.820;2023-02-28T11:23:26;8.05;;;6.50;;
11191;SDS011;5652;48.406;10.820;2023-02-28T11:25:56;8.20;;;6.10;;
11191;SDS011;5652;48.406;10.820;2023-02-28T11:28:26;8.98;;;6.18;;
11191;SDS011;5652;48.406;10.820;2023-02-28T11:31:01;9.85;;;6.32;;
11191;SDS011;5652;48.406;10.820;2023-02-28T11:33:29;9.77;;;6.57;;
11191;SDS011;5652;48.406;10.820;2023-02-28T11:36:01;8.65;;;5.95;;
11191;SDS011;5652;48.406;10.820;2023-02-28T11:38:28;9.95;;;6.30;;
11191;SDS011;5652;48.406;10.820;2023-02-28T11:41:10;8.38;;;6.47;;
11191;SDS011;5652;48.406;10.820;2023-02-28T11:43:44;9.50;;;6.00;;
11191;SDS011;5652;48.406;10.820;2023-02-28T11:46:20;8.05;;;6.20;;
11191;SDS011;5652;48.406;10.820;2023-02-28T11:48:54;8.40;;;6.13;;
11191;SDS011;5652;48.406;10.820;2023-02-28T11:51:22;6.50;;;4.82;;
11191;SDS011;5652;48.406;10.820;2023-02-28T11:53:54;6.47;;;4.70;;
11191;SDS011;5652;48.406;10.820;2023-02-28T11:56:25;8.27;;;5.15;;
11191;SDS011;5652;48.406;10.820;2023-02-28T11:59:00;8.45;;;5.05;;
11191;SDS011;5652;48.406;10.820;2023-02-28T12:01:38;7.22;;;5.13;;
11191;SDS011;5652;48.406;10.820;2023-02-28T12:04:12;7.43;;;4.53;;
11191;SDS011;5652;48.406;10.820;2023-02-28T12:06:45;7.32;;;5.22;;
11191;SDS011;5652;48.406;10.820;2023-02-28T12:09:20;8.45;;;5.47;;
11191;SDS011;5652;48.406;10.820;2023-02-28T12:11:51;9.13;;;5.78;;
11191;SDS011;5652;48.406;10.820;2023-02-28T12:14:32;8.60;;;6.20;;
11191;SDS011;5652;48.406;10.820;2023-02-28T12:17:11;7.97;;;5.35;;
11191;SDS011;5652;48.406;10.820;2023-02-28T12:19:42;7.97;;;5.45;;
11191;SDS011;5652;48.406;10.820;2023-02-28T12:22:15;7.65;;;4.90;;
11191;SDS011;5652;48.406;10.820;2023-02-28T12:24:55;7.10;;;5.10;;
11191;SDS011;5652;48.406;10.820;2023-02-28T12:27:28;8.15;;;5.07;;
11191;SDS011;5652;48.406;10.820;2023-02-28T12:29:57;7.18;;;5.18;;
11191;SDS011;5652;48.406;10.820;2023-02-28T12:32:27;8.50;;;5.88;;
11191;SDS011;5652;48.406;10.820;2023-02-28T12:34:57;9.40;;;5.37;;
11191;SDS011;5652;48.406;10.820;2023-02-28T12:37:26;8.73;;;5.53;;
11191;SDS011;5652;48.406;10.820;2023-02-28T12:39:55;9.17;;;5.37;;
11191;SDS011;5652;48.406;10.820;2023-02-28T12:42:29;7.72;;;5.05;;
11191;SDS011;5652;48.406;10.820;2023-02-28T12:44:58;8.23;;;5.18;;
11191;SDS011;5652;48.406;10.820;2023-02-28T12:47:27;7.25;;;5.50;;
11191;SDS011;5652;48.406;10.820;2023-02-28T12:49:56;8.65;;;5.32;;
11191;SDS011;5652;48.406;10.820;2023-02-28T12:52:25;9.50;;;5.40;;
11191;SDS011;5652;48.406;10.820;2023-02-28T12:54:53;7.13;;;4.93;;
11191;SDS011;5652;48.406;10.820;2023-02-28T12:57:26;7.90;;;4.90;;
11191;SDS011;5652;48.406;10.820;2023-02-28T12:59:55;8.00;;;5.40;;
11191;SDS011;5652;48.406;10.820;2023-02-28T13:02:33;8.27;;;5.40;;
11191;SDS011;5652;48.406;10.820;2023-02-28T13:05:19;7.72;;;5.28;;
11191;SDS011;5652;48.406;10.820;2023-02-28T13:10:37;7.57;;;5.30;;
11191;SDS011;5652;48.406;10.820;2023-02-28T13:13:05;8.15;;;5.90;;
11191;SDS011;5652;48.406;10.820;2023-02-28T13:15:32;7.90;;;5.28;;
11191;SDS011;5652;48.406;10.820;2023-02-28T13:18:04;6.93;;;5.05;;
11191;SDS011;5652;48.406;10.820;2023-02-28T13:20:33;7.70;;;5.13;;
11191;SDS011;5652;48.406;10.820;2023-02-28T13:23:01;6.40;;;4.60;;
11191;SDS011;5652;48.406;10.820;2023-02-28T13:31:05;10.18;;;5.60;;
11191;SDS011;5652;48.406;10.820;2023-02-28T13:33:34;7.43;;;5.28;;
11191;SDS011;5652;48.406;10.820;2023-02-28T13:36:08;7.30;;;5.00;;
11191;SDS011;5652;48.406;10.820;2023-02-28T13:38:37;9.32;;;5.70;;
11191;SDS011;5652;48.406;10.820;2023-02-28T13:44:00;7.47;;;5.28;;
11191;SDS011;5652;48.406;10.820;2023-02-28T13:46:27;7.13;;;5.60;;
11191;SDS011;5652;48.406;10.820;2023-02-28T13:48:56;7.30;;;4.80;;
11191;SDS011;5652;48.406;10.820;2023-02-28T13:51:44;7.15;;;5.00;;
11191;SDS011;5652;48.406;10.820;2023-02-28T13:57:01;9.07;;;5.85;;
11191;SDS011;5652;48.406;10.820;2023-02-28T13:59:31;7.88;;;5.32;;
11191;SDS011;5652;48.406;10.820;2023-02-28T14:02:09;8.03;;;5.80;;
11191;SDS011;5652;48.406;10.820;2023-02-28T14:04:47;8.70;;;6.10;;
11191;SDS011;5652;48.406;10.820;2023-02-28T14:07:16;6.57;;;4.35;;
11191;SDS011;5652;48.406;10.820;2023-02-28T14:09:45;7.63;;;5.32;;
11191;SDS011;5652;48.406;10.820;2023-02-28T14:14:59;6.88;;;4.53;;
11191;SDS011;5652;48.406;10.820;2023-02-28T14:17:26;7.60;;;5.38;;
11191;SDS011;5652;48.406;10.820;2023-02-28T14:19:55;7.07;;;4.75;;
11191;SDS011;5652;48.406;10.820;2023-02-28T14:22:41;7.85;;;5.50;;
11191;SDS011;5652;48.406;10.820;2023-02-28T14:25:11;7.95;;;5.22;;
11191;SDS011;5652;48.406;10.820;2023-02-28T14:27:44;6.80;;;4.68;;
11191;SDS011;5652;48.406;10.820;2023-02-28T14:30:25;5.18;;;4.15;;
11191;SDS011;5652;48.406;10.820;2023-02-28T14:33:00;7.43;;;4.45;;
11191;SDS011;5652;48.406;10.820;2023-02-28T14:35:39;8.07;;;4.55;;
11191;SDS011;5652;48.406;10.820;2023-02-28T14:38:12;8.35;;;5.40;;
11191;SDS011;5652;48.406;10.820;2023-02-28T14:40:41;7.40;;;5.22;;
11191;SDS011;5652;48.406;10.820;2023-02-28T14:43:16;8.70;;;4.90;;
11191;SDS011;5652;48.406;10.820;2023-02-28T14:45:48;7.90;;;5.13;;
11191;SDS011;5652;48.406;10.820;2023-02-28T14:48:15;7.47;;;4.90;;
11191;SDS011;5652;48.406;10.820;2023-02-28T14:50:47;6.88;;;4.30;;
11191;SDS011;5652;48.406;10.820;2023-02-28T14:53:15;8.20;;;5.45;;
11191;SDS011;5652;48.406;10.820;2023-02-28T14:55:46;7.00;;;4.78;;
11191;SDS011;5652;48.406;10.820;2023-02-28T14:58:19;8.27;;;5.20;;
11191;SDS011;5652;48.406;10.820;2023-02-28T15:00:48;6.88;;;4.25;;
11191;SDS011;5652;48.406;10.820;2023-02-28T15:03:18;6.10;;;3.97;;
11191;SDS011;5652;48.406;10.820;2023-02-28T15:05:52;6.60;;;4.20;;
11191;SDS011;5652;48.406;10.820;2023-02-28T15:08:19;6.57;;;4.50;;
11191;SDS011;5652;48.406;10.820;2023-02-28T15:10:50;9.20;;;4.60;;
11191;SDS011;5652;48.406;10.820;2023-02-28T15:13:18;7.75;;;5.07;;
11191;SDS011;5652;48.406;10.820;2023-02-28T15:15:47;7.10;;;4.40;;
11191;SDS011;5652;48.406;10.820;2023-02-28T15:18:15;7.07;;;4.60;;
11191;SDS011;5652;48.406;10.820;2023-02-28T15:20:44;7.63;;;4.82;;
11191;SDS011;5652;48.406;10.820;2023-02-28T15:23:13;7.65;;;4.72;;